Time;durP1;ratioP1;P1;durP2;ratioP2;P2;SDS_P1;SDS_P2;PMS_P1;PMS_P2;Temp;Humidity;BMP_temperature;BMP_pressure;BME280_temperature;BME280_humidity;BME280_pressure;Samples;Min_cycle;Max_cycle;Signal;HPM_P1;HPM_P2
2022/12/01 07:06:17;;;;;;;87.00;32.13;;;4.60;99.90;;;;;;6149624;23;20029;-91
2022/12/01 07:35:01;;;;;;;93.23;34.03;;;4.60;99.90;;;;;;6162653;23;20037;-88
2022/12/01 07:38:20;;;;;;;93.13;33.60;;;4.30;99.90;;;;;;6128164;23;20072;-87
2022/12/01 07:44:18;;;;;;;88.50;33.50;;;4.60;99.90;;;;;;6155156;23;20084;-88
2022/12/01 07:47:24;;;;;;;88.40;32.53;;;5.10;99.90;;;;;;6154317;23;20341;-88
2022/12/01 07:50:13;;;;;;;95.57;34.33;;;5.20;99.90;;;;;;6043315;23;20039;-88
2022/12/01 07:53:00;;;;;;;90.87;32.97;;;4.80;99.90;;;;;;6129023;23;20014;-88
2022/12/01 07:55:38;;;;;;;86.23;32.73;;;6.00;99.90;;;;;;6128509;23;20056;-89
2022/12/01 07:58:28;;;;;;;86.10;32.30;;;4.60;99.90;;;;;;6155767;23;20018;-88
2022/12/01 08:01:16;;;;;;;90.60;32.47;;;4.00;99.90;;;;;;6127964;23;20029;-88
2022/12/01 08:10:52;;;;;;;87.73;32.03;;;5.30;99.90;;;;;;6155362;23;20036;-87
2022/12/01 08:14:11;;;;;;;83.83;32.53;;;4.70;99.90;;;;;;6129602;23;20485;-88
2022/12/01 08:17:42;;;;;;;86.07;33.47;;;4.90;99.90;;;;;;6070342;23;20137;-89
2022/12/01 08:20:56;;;;;;;84.00;32.47;;;4.90;99.90;;;;;;5951158;24;20035;-89
2022/12/01 08:42:20;;;;;;;;;;;;;;;;;;;;;
2022/12/01 08:45:32;;;;;;;80.07;31.33;;;5.50;99.90;;;;;;5924695;24;20028;-88
2022/12/01 08:48:29;;;;;;;;;;;;;;;;;;;;;
2022/12/01 08:51:28;;;;;;;;;;;4.90;99.90;;;;;;5867291;24;20093;-88
2022/12/01 09:09:11;;;;;;;84.03;30.77;;;5.10;99.90;;;;;;5925124;24;20122;-88
2022/12/01 10:26:15;;;;;;;67.23;27.70;;;5.30;99.90;;;;;;6155023;23;20017;-87
2022/12/01 10:29:10;;;;;;;58.67;25.57;;;6.40;99.90;;;;;;6153340;23;20056;-87
2022/12/01 10:32:10;;;;;;;63.43;27.23;;;5.10;99.90;;;;;;6155526;23;20024;-87
2022/12/01 10:39:23;;;;;;;59.00;27.17;;;5.60;99.90;;;;;;6050945;23;20027;-87
2022/12/01 10:42:00;;;;;;;63.13;27.17;;;5.50;99.90;;;;;;6111610;23;20021;-87
2022/12/01 10:45:26;;;;;;;64.33;27.30;;;5.80;99.90;;;;;;6129345;23;20446;-89
2022/12/01 10:48:25;;;;;;;65.50;27.97;;;5.90;99.90;;;;;;6134267;23;20048;-87
2022/12/01 10:51:14;;;;;;;57.43;26.83;;;4.90;99.90;;;;;;6130509;23;20014;-88
2022/12/01 10:53:45;;;;;;;60.23;25.87;;;5.70;99.90;;;;;;6129163;23;20028;-86
2022/12/01 10:56:33;;;;;;;55.20;24.77;;;4.70;99.90;;;;;;6154567;23;20014;-87
2022/12/01 10:59:40;;;;;;;58.27;26.70;;;5.50;99.90;;;;;;6080004;23;20022;-87
2022/12/01 11:02:18;;;;;;;56.53;25.90;;;6.20;99.90;;;;;;6013763;23;20029;-87
2022/12/01 11:05:22;;;;;;;58.07;25.13;;;5.70;99.90;;;;;;6035896;23;20039;-87
2022/12/01 11:07:51;;;;;;;55.27;26.00;;;5.80;99.90;;;;;;5956588;24;20020;-87
2022/12/01 11:10:26;;;;;;;52.67;24.63;;;6.30;99.90;;;;;;5955435;24;20132;-87
2022/12/01 11:13:17;;;;;;;58.30;26.13;;;5.50;99.90;;;;;;6087025;23;20020;-88
2022/12/01 11:16:34;;;;;;;55.43;24.87;;;6.50;99.90;;;;;;6035401;23;20023;-87
2022/12/01 11:19:46;;;;;;;54.53;25.27;;;6.60;99.90;;;;;;6155176;23;20458;-88
2022/12/01 11:23:09;;;;;;;52.17;24.95;;;5.40;99.90;;;;;;6128869;23;20017;-88
2022/12/01 11:26:25;;;;;;;;;;;;;;;;;;;;;
2022/12/01 11:33:38;;;;;;;58.47;26.20;;;6.10;99.90;;;;;;6094387;23;20029;-87
2022/12/01 11:55:39;;;;;;;49.93;24.17;;;6.10;99.90;;;;;;6174646;23;20469;-86
2022/12/01 12:04:50;;;;;;;47.57;23.87;;;6.10;99.90;;;;;;6151306;23;20021;-87
2022/12/01 12:07:44;;;;;;;44.90;22.57;;;5.40;99.90;;;;;;6127508;23;20457;-89
2022/12/01 12:14:17;;;;;;;46.33;23.10;;;5.40;99.90;;;;;;6128091;23;20108;-87
2022/12/01 12:25:16;;;;;;;47.83;23.07;;;6.10;99.90;;;;;;5984257;23;20013;-87
2022/12/01 12:28:47;;;;;;;44.77;22.40;;;6.60;99.90;;;;;;5968160;24;20055;-86
2022/12/01 12:31:59;;;;;;;49.50;23.43;;;5.90;99.90;;;;;;5984988;24;20441;-86
2022/12/01 12:35:05;;;;;;;46.77;22.83;;;6.00;99.90;;;;;;5978749;23;20024;-86
2022/12/01 12:41:44;;;;;;;49.57;24.13;;;7.40;99.90;;;;;;5896872;23;20028;-86
2022/12/01 12:44:25;;;;;;;45.20;21.80;;;6.00;99.90;;;;;;5983662;23;20038;-86
2022/12/01 12:47:16;;;;;;;48.27;23.67;;;5.70;99.90;;;;;;5984861;23;20027;-86
2022/12/01 12:49:50;;;;;;;43.20;23.60;;;6.20;99.90;;;;;;6107282;23;20017;-86
2022/12/01 12:52:32;;;;;;;46.93;23.33;;;6.10;99.90;;;;;;6155527;23;20029;-86
2022/12/01 12:55:38;;;;;;;43.17;22.60;;;5.90;99.90;;;;;;6147973;23;20053;-86
2022/12/01 12:58:22;;;;;;;39.93;21.63;;;6.40;99.90;;;;;;6156476;23;20017;-86
2022/12/01 13:01:00;;;;;;;43.80;20.93;;;6.80;99.90;;;;;;6130962;23;20149;-86
2022/12/01 13:03:38;;;;;;;42.20;21.47;;;6.00;99.90;;;;;;6130293;23;20025;-85
2022/12/01 13:06:10;;;;;;;39.70;21.07;;;6.00;99.90;;;;;;6130623;23;20454;-86
2022/12/01 13:08:58;;;;;;;40.03;20.80;;;6.10;99.90;;;;;;6130073;23;20441;-86
2022/12/01 13:11:31;;;;;;;38.90;21.17;;;6.20;99.90;;;;;;6129692;23;20083;-86
2022/12/01 13:14:20;;;;;;;41.15;20.85;;;6.30;99.90;;;;;;6130636;23;20025;-86
2022/12/01 13:16:58;;;;;;;38.43;19.77;;;5.60;99.90;;;;;;6130708;23;20024;-86
2022/12/01 13:19:42;;;;;;;41.97;21.03;;;5.90;99.90;;;;;;6130659;23;20026;-85
2022/12/01 13:22:16;;;;;;;40.47;21.13;;;6.00;99.90;;;;;;6156527;23;20017;-86
2022/12/01 13:24:42;;;;;;;38.80;20.47;;;4.90;99.90;;;;;;6155790;23;20020;-86
2022/12/01 13:27:19;;;;;;;39.20;20.90;;;7.30;99.90;;;;;;6157209;23;20014;-86
2022/12/01 13:29:47;;;;;;;39.90;21.27;;;5.70;99.90;;;;;;6129343;23;20025;-85
2022/12/01 13:32:32;;;;;;;42.67;21.30;;;5.50;99.90;;;;;;6156418;23;20092;-86
2022/12/01 13:35:30;;;;;;;44.23;22.83;;;6.20;99.90;;;;;;6130254;23;20362;-86
2022/12/01 13:38:33;;;;;;;48.93;23.57;;;6.70;99.90;;;;;;6129321;23;20461;-86
2022/12/01 13:41:16;;;;;;;42.93;21.97;;;5.10;99.90;;;;;;6130211;23;20434;-87
2022/12/01 13:44:17;;;;;;;46.65;22.73;;;5.80;99.90;;;;;;6129434;23;20048;-86
2022/12/01 13:46:55;;;;;;;42.27;22.17;;;5.70;99.90;;;;;;6130596;23;20456;-86
2022/12/01 13:49:57;;;;;;;44.37;22.53;;;5.60;99.90;;;;;;6129871;23;20123;-85
2022/12/01 13:52:28;;;;;;;44.63;22.93;;;5.70;99.90;;;;;;6129292;23;20470;-86
2022/12/01 13:55:06;;;;;;;42.57;22.70;;;5.40;99.90;;;;;;6134487;23;20467;-86
2022/12/01 13:58:00;;;;;;;45.13;23.33;;;5.80;99.90;;;;;;6156162;23;20017;-86
2022/12/01 14:00:44;;;;;;;45.45;21.70;;;6.80;99.90;;;;;;6129495;23;20101;-87
2022/12/01 14:03:16;;;;;;;47.10;22.30;;;4.70;99.90;;;;;;6134626;23;20338;-86
2022/12/01 14:06:22;;;;;;;45.10;22.47;;;5.20;99.90;;;;;;6129172;23;20053;-86
2022/12/01 14:09:01;;;;;;;48.63;22.73;;;5.30;99.90;;;;;;6130247;23;20029;-86
2022/12/01 14:11:35;;;;;;;50.10;23.83;;;5.70;99.90;;;;;;6155346;23;20338;-86
2022/12/01 14:14:29;;;;;;;49.93;23.80;;;6.30;99.90;;;;;;6154720;23;20044;-86
2022/12/01 14:17:04;;;;;;;47.10;23.60;;;5.40;99.90;;;;;;6129900;23;20100;-86
2022/12/01 14:19:51;;;;;;;49.57;24.20;;;5.10;99.90;;;;;;6128746;23;20021;-86
2022/12/01 14:23:13;;;;;;;52.30;25.47;;;5.30;99.90;;;;;;6129978;23;20017;-86
2022/12/01 14:26:15;;;;;;;52.00;25.13;;;5.80;99.90;;;;;;6156043;23;20028;-86
2022/12/01 14:28:59;;;;;;;53.87;26.07;;;7.10;99.90;;;;;;6134381;23;20017;-86
2022/12/01 14:31:40;;;;;;;;;;;6.10;99.90;;;;;;6156452;23;20025;-86
2022/12/01 14:34:23;;;;;;;55.80;25.57;;;5.40;99.90;;;;;;6129943;23;19916;-86
2022/12/01 14:37:26;;;;;;;57.17;25.20;;;5.40;99.90;;;;;;6136521;23;20017;-86
2022/12/01 14:40:16;;;;;;;58.70;26.10;;;5.40;99.90;;;;;;6129693;23;20026;-86
2022/12/01 14:46:09;;;;;;;59.00;27.63;;;5.40;99.90;;;;;;6129728;23;20034;-86
2022/12/01 14:48:41;;;;;;;55.77;27.37;;;5.00;99.90;;;;;;6155200;23;20088;-86
2022/12/01 14:51:30;;;;;;;60.63;29.30;;;5.00;99.90;;;;;;6129729;23;20017;-86
2022/12/01 14:53:57;;;;;;;67.03;29.43;;;5.10;99.90;;;;;;6129075;23;20028;-85
2022/12/01 14:56:31;;;;;;;66.20;30.13;;;6.50;99.90;;;;;;6129464;23;20017;-86
2022/12/01 14:58:59;;;;;;;63.37;29.57;;;5.00;99.90;;;;;;6129887;23;20342;-86
2022/12/01 15:01:36;;;;;;;67.67;31.17;;;6.20;99.90;;;;;;6128503;23;20049;-86
2022/12/01 15:04:07;;;;;;;69.50;30.43;;;6.10;99.90;;;;;;6155940;23;20017;-86
2022/12/01 15:06:39;;;;;;;64.53;30.63;;;6.80;99.90;;;;;;6155424;23;20330;-87
2022/12/01 15:09:17;;;;;;;64.93;30.63;;;4.90;99.90;;;;;;6128742;23;20662;-86
2022/12/01 15:11:52;;;;;;;69.10;30.80;;;4.90;99.90;;;;;;6129845;23;20029;-86
2022/12/01 15:14:48;;;;;;;64.70;28.00;;;5.00;99.90;;;;;;6155811;23;20100;-86
2022/12/01 15:17:30;;;;;;;61.60;29.40;;;5.00;99.90;;;;;;6112910;23;20041;-87
2022/12/01 15:19:56;;;;;;;64.27;29.63;;;6.00;99.90;;;;;;6164063;23;20317;-86
2022/12/01 15:22:25;;;;;;;70.97;30.47;;;5.10;99.90;;;;;;6128680;23;20025;-86
2022/12/01 15:25:05;;;;;;;61.63;29.77;;;4.90;99.90;;;;;;6129756;23;20319;-86
2022/12/01 15:27:34;;;;;;;68.37;30.20;;;4.70;99.90;;;;;;6129397;23;20075;-86
2022/12/01 15:30:03;;;;;;;65.70;31.00;;;4.90;99.90;;;;;;6128875;23;20026;-86
2022/12/01 15:32:37;;;;;;;68.30;30.70;;;5.10;99.90;;;;;;6133627;23;20467;-86
2022/12/01 15:35:04;;;;;;;73.40;30.80;;;5.00;99.90;;;;;;6154971;23;20423;-86
2022/12/01 15:37:43;;;;;;;70.20;31.30;;;5.00;99.90;;;;;;6154448;23;20021;-86
2022/12/01 15:40:16;;;;;;;72.43;32.47;;;5.90;99.90;;;;;;6160046;23;20010;-86
2022/12/01 15:43:23;;;;;;;77.73;34.03;;;4.80;99.90;;;;;;6130182;23;20021;-86
2022/12/01 15:45:59;;;;;;;75.07;31.87;;;5.10;99.90;;;;;;6129816;23;20072;-86
2022/12/01 15:48:35;;;;;;;73.97;32.60;;;4.90;99.90;;;;;;6129945;23;20021;-86
2022/12/01 15:51:23;;;;;;;68.33;31.47;;;4.90;99.90;;;;;;6155378;23;20040;-86
2022/12/01 15:53:59;;;;;;;79.80;33.53;;;5.00;99.90;;;;;;6129666;23;20080;-86
2022/12/01 15:56:39;;;;;;;74.40;31.60;;;5.10;99.90;;;;;;6155488;23;20071;-86
2022/12/01 21:42:41;;;;;;;52.33;24.20;;;4.40;99.90;;;;;;6108475;23;20033;-90
